Terminal Aerodrome Forecast
Issued by NWS

Home | Current Version | Previous Version | Text Only | Print | Product List | Glossary Off
Versions: 1 2 3 4 5 6 7 8 9 10 11 12 13 14 15 16 17 18

000
FTUS43 KPAH 270520
TAFCGI
TAF
KCGI 270520Z 2706/2806 00000KT P6SM FEW060 SCT120
     FM270800 00000KT 6SM BR SCT090
     FM271500 21004KT P6SM SCT040=

USA.gov is the U.S. government's official web portal to all federal, state and local government web resources and services.